createdAt,value
2024-01-04T00:00:57.306Z,12.13
2024-01-04T00:03:26.295Z,12.11
2024-01-04T00:05:53.250Z,12.09
2024-01-04T00:08:20.068Z,12.06
2024-01-04T00:10:46.869Z,12.04
2024-01-04T00:13:13.528Z,12.00
2024-01-04T00:15:40.206Z,11.98
2024-01-04T00:18:07.072Z,11.98
2024-01-04T00:20:33.845Z,11.96
2024-01-04T00:23:00.537Z,11.94
2024-01-04T00:25:27.274Z,11.94
2024-01-04T00:27:54.056Z,11.93
2024-01-04T00:30:21.009Z,11.92
2024-01-04T00:32:47.770Z,11.90
2024-01-04T00:35:14.527Z,11.90
2024-01-04T00:37:41.256Z,11.89
2024-01-04T00:40:09.751Z,11.89
2024-01-04T00:42:39.634Z,11.88
2024-01-04T00:45:07.493Z,11.87
2024-01-04T00:47:34.348Z,11.86
2024-01-04T00:50:01.060Z,11.88
2024-01-04T00:52:27.787Z,11.88
2024-01-04T00:54:54.442Z,11.86
2024-01-04T00:57:21.143Z,11.87
2024-01-04T00:59:47.840Z,11.86
2024-01-04T01:02:14.484Z,11.87
2024-01-04T01:04:41.153Z,11.87
2024-01-04T01:07:07.952Z,11.87
2024-01-04T01:09:34.692Z,11.85
2024-01-04T01:12:01.346Z,11.85
2024-01-04T01:14:28.155Z,11.84
2024-01-04T01:16:54.934Z,11.82
2024-01-04T01:19:21.675Z,11.84
2024-01-04T01:21:48.526Z,11.81
2024-01-04T01:24:15.281Z,11.80
2024-01-04T01:26:44.076Z,11.77
2024-01-04T01:29:12.079Z,11.74
2024-01-04T01:31:43.008Z,11.70
2024-01-04T01:34:10.603Z,11.69
2024-01-04T01:36:41.808Z,11.65
2024-01-04T01:39:10.041Z,11.63
2024-01-04T01:41:37.103Z,11.60
2024-01-04T01:44:03.840Z,11.56
2024-01-04T01:46:30.819Z,11.54
2024-01-04T01:48:57.803Z,11.51
2024-01-04T01:51:24.573Z,11.49
2024-01-04T01:53:51.517Z,11.44
2024-01-04T01:56:18.863Z,11.43
2024-01-04T01:58:48.869Z,11.39
2024-01-04T02:01:16.108Z,11.38
2024-01-04T02:03:43.195Z,11.37
2024-01-04T02:06:10.094Z,11.35
2024-01-04T02:08:37.129Z,11.35
2024-01-04T02:11:03.941Z,11.34
2024-01-04T02:13:30.781Z,11.38
2024-01-04T02:15:57.442Z,11.38
2024-01-04T02:18:24.303Z,11.40
2024-01-04T02:20:51.096Z,11.43
2024-01-04T02:23:20.349Z,11.45
2024-01-04T02:25:47.010Z,11.48
2024-01-04T02:28:13.733Z,11.53
2024-01-04T02:30:40.394Z,11.55
2024-01-04T02:33:07.365Z,11.60
2024-01-04T02:35:34.131Z,11.63
2024-01-04T02:38:00.838Z,11.65
2024-01-04T02:40:29.330Z,11.67
2024-01-04T02:42:56.021Z,11.68
2024-01-04T02:45:22.789Z,11.67
2024-01-04T02:47:49.540Z,11.65
2024-01-04T02:50:16.325Z,11.61
2024-01-04T02:52:43.070Z,11.57
2024-01-04T02:55:09.757Z,11.54
2024-01-04T02:57:36.388Z,11.48
2024-01-04T03:00:03.610Z,11.43
2024-01-04T03:02:30.344Z,11.39
2024-01-04T03:04:56.990Z,11.34
2024-01-04T03:07:23.622Z,11.30
2024-01-04T03:09:50.384Z,11.24
2024-01-04T03:12:17.577Z,11.19
2024-01-04T03:14:44.326Z,11.14
2024-01-04T03:17:10.991Z,11.06
2024-01-04T03:19:37.753Z,11.01
2024-01-04T03:22:04.673Z,10.94
2024-01-04T03:24:32.765Z,10.91
2024-01-04T03:26:59.564Z,10.84
2024-01-04T03:29:26.250Z,10.80
2024-01-04T03:31:52.861Z,10.78
2024-01-04T03:34:19.750Z,10.77
2024-01-04T03:36:46.638Z,10.77
2024-01-04T03:39:13.570Z,10.78
2024-01-04T03:41:40.465Z,10.80
2024-01-04T03:44:07.194Z,10.81
2024-01-04T03:46:33.819Z,10.81
2024-01-04T03:49:00.734Z,10.82
2024-01-04T03:51:27.576Z,10.78
2024-01-04T03:53:54.410Z,10.72
2024-01-04T03:56:21.115Z,10.66
2024-01-04T03:58:47.805Z,10.60
2024-01-04T04:01:14.560Z,10.56
2024-01-04T04:03:41.363Z,10.51
2024-01-04T04:06:09.291Z,10.46
2024-01-04T04:08:36.532Z,10.43
2024-01-04T04:11:03.501Z,10.38
2024-01-04T04:13:31.955Z,10.33
2024-01-04T04:15:58.640Z,10.30
2024-01-04T04:18:25.474Z,10.25
2024-01-04T04:20:53.644Z,10.22
2024-01-04T04:23:20.326Z,10.17
2024-01-04T04:25:47.034Z,10.13
2024-01-04T04:28:14.633Z,10.09
2024-01-04T04:30:41.343Z,10.04
2024-01-04T04:33:08.358Z,9.98
2024-01-04T04:35:44.011Z,9.91
2024-01-04T04:38:14.545Z,9.85
2024-01-04T04:40:41.250Z,9.79
2024-01-04T04:43:07.936Z,9.75
2024-01-04T04:45:34.637Z,9.68
2024-01-04T04:48:01.446Z,9.64
2024-01-04T04:50:28.192Z,9.61
2024-01-04T04:52:55.423Z,9.58
2024-01-04T04:55:22.335Z,9.56
2024-01-04T04:57:49.028Z,9.57
2024-01-04T05:00:16.193Z,9.56
2024-01-04T05:02:43.538Z,9.53
2024-01-04T05:05:10.216Z,9.51
2024-01-04T05:07:42.367Z,9.48
2024-01-04T05:10:09.235Z,9.45
2024-01-04T05:12:35.906Z,9.44
2024-01-04T05:15:02.904Z,9.42
2024-01-04T05:17:29.816Z,9.42
2024-01-04T05:19:56.596Z,9.38
2024-01-04T05:22:23.398Z,9.37
2024-01-04T05:24:50.108Z,9.37
2024-01-04T05:27:16.898Z,9.37
2024-01-04T05:29:43.593Z,9.36
2024-01-04T05:32:10.288Z,9.37
2024-01-04T05:34:38.314Z,9.38
2024-01-04T05:37:05.011Z,9.39
2024-01-04T05:39:31.713Z,9.40
2024-01-04T05:41:58.344Z,9.42
2024-01-04T05:44:25.057Z,9.42
2024-01-04T05:46:51.726Z,9.43
2024-01-04T05:49:18.513Z,9.45
2024-01-04T05:51:45.257Z,9.45
2024-01-04T05:54:12.015Z,9.45
2024-01-04T05:56:39.894Z,9.46
2024-01-04T05:59:06.543Z,9.47
2024-01-04T06:01:35.802Z,9.47
2024-01-04T06:04:02.524Z,9.49
2024-01-04T06:06:29.280Z,9.52
2024-01-04T06:08:56.063Z,9.50
2024-01-04T06:11:22.732Z,9.51
2024-01-04T06:13:49.519Z,9.52
2024-01-04T06:16:18.854Z,9.53
2024-01-04T06:18:45.694Z,9.54
2024-01-04T06:21:12.586Z,9.54
2024-01-04T06:23:39.409Z,9.55
2024-01-04T06:26:06.147Z,9.55
2024-01-04T06:28:32.788Z,9.53
2024-01-04T06:31:00.541Z,9.54
2024-01-04T06:33:27.441Z,9.54
2024-01-04T06:35:57.693Z,9.54
2024-01-04T06:38:25.502Z,9.52
2024-01-04T06:40:54.006Z,9.50
2024-01-04T06:43:20.705Z,9.48
2024-01-04T06:45:47.386Z,9.47
2024-01-04T06:48:14.423Z,9.49
2024-01-04T06:50:41.308Z,9.47
2024-01-04T06:53:09.180Z,9.44
2024-01-04T06:55:35.802Z,9.43
2024-01-04T06:58:02.504Z,9.40
2024-01-04T07:00:29.263Z,9.38
2024-01-04T07:02:56.024Z,9.37
2024-01-04T07:05:22.996Z,9.35
2024-01-04T07:07:49.702Z,9.33
2024-01-04T07:10:16.492Z,9.32
2024-01-04T07:12:44.436Z,9.31
2024-01-04T07:15:12.081Z,9.32
2024-01-04T07:17:39.763Z,9.33
2024-01-04T07:20:07.543Z,9.33
2024-01-04T07:22:35.014Z,9.34
2024-01-04T07:25:02.074Z,9.35
2024-01-04T07:27:31.821Z,9.34
2024-01-04T07:29:59.596Z,9.35
2024-01-04T07:32:26.437Z,9.36
2024-01-04T07:35:00.661Z,9.38
2024-01-04T07:37:34.777Z,9.39
2024-01-04T07:40:01.429Z,9.42
2024-01-04T07:42:28.118Z,9.47
2024-01-04T07:45:02.365Z,9.59
2024-01-04T07:47:33.140Z,9.72
2024-01-04T07:49:59.864Z,9.92
2024-01-04T07:52:26.548Z,10.13
2024-01-04T07:54:53.274Z,10.41
2024-01-04T07:57:22.041Z,10.70
2024-01-04T07:59:48.739Z,11.01
2024-01-04T08:02:16.532Z,11.37
2024-01-04T08:04:43.215Z,11.73
2024-01-04T08:07:10.109Z,12.12
2024-01-04T08:09:39.459Z,12.51
2024-01-04T08:12:06.792Z,13.00
2024-01-04T08:14:34.939Z,13.44
2024-01-04T08:17:01.606Z,13.83
2024-01-04T08:19:28.599Z,14.16
2024-01-04T08:21:55.326Z,14.60
2024-01-04T08:24:22.025Z,15.01
2024-01-04T08:26:48.917Z,15.46
2024-01-04T08:29:15.619Z,15.73
2024-01-04T08:31:42.413Z,15.98
2024-01-04T08:34:09.294Z,16.23
2024-01-04T08:36:36.142Z,16.50
2024-01-04T08:39:04.686Z,16.77
2024-01-04T08:41:31.378Z,17.06
2024-01-04T08:43:58.317Z,17.36
2024-01-04T08:46:25.063Z,17.68
2024-01-04T08:48:52.030Z,17.97
2024-01-04T08:51:19.883Z,18.18
2024-01-04T08:53:46.944Z,18.35
2024-01-04T08:56:15.361Z,18.45
2024-01-04T08:58:42.586Z,18.53
2024-01-04T09:01:09.387Z,18.53
2024-01-04T09:03:36.420Z,18.56
2024-01-04T09:06:05.099Z,18.62
2024-01-04T09:08:32.835Z,18.72
2024-01-04T09:10:59.764Z,18.88
2024-01-04T09:13:26.432Z,19.05
2024-01-04T09:15:53.090Z,19.15
2024-01-04T09:18:20.944Z,19.26
2024-01-04T09:20:48.380Z,19.22
2024-01-04T09:23:15.079Z,18.94
2024-01-04T09:25:41.761Z,18.65
2024-01-04T09:28:08.383Z,18.41
2024-01-04T09:30:35.128Z,18.21
2024-01-04T09:33:02.684Z,18.00
2024-01-04T09:35:29.476Z,17.85
2024-01-04T09:37:56.161Z,17.74
2024-01-04T09:40:22.981Z,17.67
2024-01-04T09:42:54.574Z,17.51
2024-01-04T09:45:23.194Z,17.41
2024-01-04T09:47:55.146Z,17.32
2024-01-04T09:50:23.347Z,17.31
2024-01-04T09:52:56.371Z,17.38
2024-01-04T09:55:24.967Z,17.45
2024-01-04T09:57:51.855Z,17.46
2024-01-04T10:00:19.681Z,17.50
2024-01-04T10:02:46.586Z,17.62
2024-01-04T10:05:17.358Z,17.75
2024-01-04T10:08:21.290Z,18.05
2024-01-04T10:10:48.328Z,18.45
2024-01-04T10:13:16.253Z,18.76
2024-01-04T10:15:44.764Z,18.98
2024-01-04T10:18:14.473Z,19.09
2024-01-04T10:20:41.456Z,19.25
2024-01-04T10:23:08.704Z,19.42
2024-01-04T10:25:35.349Z,19.55
2024-01-04T10:28:02.467Z,19.75
2024-01-04T10:30:30.488Z,19.98
2024-01-04T10:32:57.559Z,20.20
2024-01-04T10:35:28.382Z,20.36
2024-01-04T10:37:58.686Z,20.36
2024-01-04T10:40:29.807Z,20.18
2024-01-04T10:42:58.648Z,20.16
2024-01-04T10:45:28.787Z,20.16
2024-01-04T10:47:57.020Z,20.14
2024-01-04T10:50:25.631Z,20.13
2024-01-04T10:52:59.896Z,20.09
2024-01-04T10:55:28.794Z,20.07
2024-01-04T10:57:58.522Z,20.08
2024-01-04T11:00:25.444Z,20.10
2024-01-04T11:02:53.034Z,20.08
2024-01-04T11:05:21.656Z,20.04
2024-01-04T11:07:49.940Z,19.96
2024-01-04T11:10:18.009Z,19.93
2024-01-04T11:12:46.742Z,19.93
2024-01-04T11:15:15.684Z,19.93
2024-01-04T11:17:42.481Z,19.88
2024-01-04T11:20:18.840Z,19.77
2024-01-04T11:23:33.375Z,19.58
2024-01-04T11:26:03.097Z,19.46
2024-01-04T11:28:40.107Z,19.25
2024-01-04T11:31:08.317Z,19.00
2024-01-04T11:33:44.658Z,18.79
2024-01-04T11:36:20.036Z,18.74
2024-01-04T11:38:48.225Z,18.81
2024-01-04T11:41:14.948Z,18.84
2024-01-04T11:43:45.463Z,18.91
2024-01-04T11:46:24.029Z,18.98
2024-01-04T11:49:00.585Z,19.11
2024-01-04T11:51:39.687Z,19.16
2024-01-04T11:54:08.245Z,19.18
2024-01-04T11:56:35.195Z,19.21
2024-01-04T11:59:08.935Z,19.24
2024-01-04T12:01:43.354Z,19.24
2024-01-04T12:04:14.585Z,19.25
2024-01-04T12:06:43.475Z,19.19
2024-01-04T12:09:12.213Z,19.14
2024-01-04T12:11:46.844Z,19.09
2024-01-04T12:14:13.746Z,19.09
2024-01-04T12:16:41.091Z,19.09
2024-01-04T12:19:08.908Z,19.05
2024-01-04T12:21:36.306Z,18.95
2024-01-04T12:24:04.252Z,18.85
2024-01-04T12:26:31.668Z,18.76
2024-01-04T12:29:00.670Z,18.69
2024-01-04T12:31:27.584Z,18.61
2024-01-04T12:33:55.515Z,18.50
2024-01-04T12:36:23.693Z,18.37
2024-01-04T12:38:55.495Z,18.21
2024-01-04T12:41:26.687Z,18.07
2024-01-04T12:43:55.173Z,18.00
2024-01-04T12:46:22.648Z,17.89
2024-01-04T12:48:50.292Z,17.87
2024-01-04T12:51:18.012Z,17.86
2024-01-04T12:53:49.049Z,17.81
2024-01-04T12:56:16.958Z,17.80
2024-01-04T12:58:45.861Z,17.79
2024-01-04T13:01:12.911Z,17.81
2024-01-04T13:03:39.790Z,17.78
2024-01-04T13:06:06.962Z,17.76
2024-01-04T13:08:33.860Z,17.75
2024-01-04T13:11:00.875Z,17.67
2024-01-04T13:13:31.251Z,17.61
2024-01-04T13:16:00.004Z,17.53
2024-01-04T13:18:27.074Z,17.51
2024-01-04T13:20:53.962Z,17.44
2024-01-04T13:23:20.626Z,17.38
2024-01-04T13:25:47.251Z,17.32
2024-01-04T13:28:13.867Z,17.27
2024-01-04T13:30:40.631Z,17.20
2024-01-04T13:33:07.945Z,17.12
2024-01-04T13:35:35.035Z,17.04
2024-01-04T13:38:02.214Z,16.97
2024-01-04T13:40:29.681Z,16.88
2024-01-04T13:42:56.329Z,16.77
2024-01-04T13:45:23.513Z,16.67
2024-01-04T13:47:50.880Z,16.60
2024-01-04T13:50:17.675Z,16.60
2024-01-04T13:52:44.347Z,16.58
2024-01-04T13:55:12.367Z,16.57
2024-01-04T13:57:39.091Z,16.60
2024-01-04T14:00:09.499Z,16.60
2024-01-04T14:02:38.287Z,16.57
2024-01-04T14:05:05.297Z,16.57
2024-01-04T14:07:32.395Z,16.59
2024-01-04T14:09:59.102Z,16.58
2024-01-04T14:12:25.750Z,16.57
2024-01-04T14:14:52.470Z,16.54
2024-01-04T14:17:19.179Z,16.53
2024-01-04T14:19:45.975Z,16.53
2024-01-04T14:22:13.348Z,16.48
2024-01-04T14:24:40.144Z,16.46
2024-01-04T14:27:06.835Z,16.46
2024-01-04T14:29:35.372Z,16.43
2024-01-04T14:32:02.077Z,16.41
2024-01-04T14:34:28.881Z,16.36
2024-01-04T14:36:55.952Z,16.34
2024-01-04T14:39:23.196Z,16.31
2024-01-04T14:41:51.375Z,16.25
2024-01-04T14:44:18.170Z,16.20
2024-01-04T14:46:44.820Z,16.18
2024-01-04T14:49:11.998Z,16.15
2024-01-04T14:51:38.732Z,16.13
2024-01-04T14:54:06.007Z,16.13
2024-01-04T14:56:37.870Z,16.14
2024-01-04T14:59:09.410Z,16.12
2024-01-04T15:01:36.302Z,16.12
2024-01-04T15:04:03.373Z,16.09
2024-01-04T15:06:30.406Z,16.07
2024-01-04T15:08:57.234Z,16.03
2024-01-04T15:11:24.625Z,15.97
2024-01-04T15:13:52.216Z,15.89
2024-01-04T15:16:19.454Z,15.85
2024-01-04T15:18:46.537Z,15.80
2024-01-04T15:21:14.269Z,15.75
2024-01-04T15:23:41.384Z,15.71
2024-01-04T15:26:08.264Z,15.66
2024-01-04T15:28:35.025Z,15.60
2024-01-04T15:31:01.783Z,15.54
2024-01-04T15:33:28.893Z,15.47
2024-01-04T15:35:58.222Z,15.44
2024-01-04T15:38:25.914Z,15.39
2024-01-04T15:40:52.617Z,15.36
2024-01-04T15:43:21.112Z,15.33
2024-01-04T15:45:47.778Z,15.30
2024-01-04T15:48:16.942Z,15.29
2024-01-04T15:50:44.980Z,15.25
2024-01-04T15:53:11.673Z,15.23
2024-01-04T15:55:38.350Z,15.18
2024-01-04T15:58:05.474Z,15.16
2024-01-04T16:00:32.423Z,15.15
2024-01-04T16:03:00.203Z,15.09
2024-01-04T16:05:27.867Z,15.06
2024-01-04T16:07:54.468Z,15.02
2024-01-04T16:10:21.280Z,15.00
2024-01-04T16:12:48.462Z,14.96
2024-01-04T16:15:15.400Z,14.91
2024-01-04T16:17:42.148Z,14.88
2024-01-04T16:20:15.714Z,14.86
2024-01-04T16:22:49.339Z,14.79
2024-01-04T16:25:16.072Z,14.72
2024-01-04T16:27:43.160Z,14.66
2024-01-04T16:30:11.451Z,14.59
2024-01-04T16:32:38.258Z,14.53
2024-01-04T16:35:05.977Z,14.46
2024-01-04T16:37:32.759Z,14.42
2024-01-04T16:39:59.513Z,14.36
2024-01-04T16:42:26.406Z,14.31
2024-01-04T16:44:53.453Z,14.23
2024-01-04T16:47:20.418Z,14.17
2024-01-04T16:49:47.208Z,14.13
2024-01-04T16:52:14.115Z,14.08
2024-01-04T16:54:41.249Z,14.02
2024-01-04T16:57:08.057Z,13.94
2024-01-04T16:59:34.713Z,13.88
2024-01-04T17:02:02.403Z,13.84
2024-01-04T17:04:29.578Z,13.77
2024-01-04T17:06:56.421Z,13.70
2024-01-04T17:09:25.460Z,13.66
2024-01-04T17:11:53.666Z,13.61
2024-01-04T17:14:21.169Z,13.58
2024-01-04T17:16:47.844Z,13.55
2024-01-04T17:19:14.735Z,13.52
2024-01-04T17:21:42.134Z,13.47
2024-01-04T17:24:08.937Z,13.43
2024-01-04T17:26:35.843Z,13.40
2024-01-04T17:29:03.268Z,13.37
2024-01-04T17:31:30.397Z,13.32
2024-01-04T17:33:57.472Z,13.25
2024-01-04T17:36:29.007Z,13.23
2024-01-04T17:39:02.099Z,13.21
2024-01-04T17:41:28.835Z,13.17
2024-01-04T17:43:55.475Z,13.12
2024-01-04T17:46:22.361Z,13.12
2024-01-04T17:48:49.193Z,13.09
2024-01-04T17:51:18.740Z,13.08
2024-01-04T17:53:45.560Z,13.05
2024-01-04T17:56:12.296Z,13.02
2024-01-04T17:58:39.003Z,12.98
2024-01-04T18:01:05.879Z,12.94
2024-01-04T18:03:33.038Z,12.93
2024-01-04T18:05:59.882Z,12.91
2024-01-04T18:08:26.592Z,12.87
2024-01-04T18:10:53.245Z,12.83
2024-01-04T18:13:20.296Z,12.79
2024-01-04T18:15:47.018Z,12.78
2024-01-04T18:18:13.803Z,12.75
2024-01-04T18:20:40.555Z,12.72
2024-01-04T18:23:07.174Z,12.68
2024-01-04T18:25:35.187Z,12.66
2024-01-04T18:28:04.080Z,12.62
2024-01-04T18:30:32.204Z,12.60
2024-01-04T18:32:59.505Z,12.58
2024-01-04T18:35:26.232Z,12.53
2024-01-04T18:37:52.931Z,12.54
2024-01-04T18:40:19.687Z,12.50
2024-01-04T18:42:49.126Z,12.50
2024-01-04T18:45:16.002Z,12.46
2024-01-04T18:47:42.881Z,12.44
2024-01-04T18:50:09.924Z,12.43
2024-01-04T18:52:36.700Z,12.43
2024-01-04T18:55:03.427Z,12.42
2024-01-04T18:57:30.287Z,12.41
2024-01-04T18:59:57.431Z,12.41
2024-01-04T19:02:24.727Z,12.41
2024-01-04T19:04:51.598Z,12.40
2024-01-04T19:07:18.287Z,12.37
2024-01-04T19:09:44.972Z,12.38
2024-01-04T19:12:11.713Z,12.37
2024-01-04T19:14:38.430Z,12.36
2024-01-04T19:17:05.064Z,12.36
2024-01-04T19:19:31.803Z,12.35
2024-01-04T19:21:58.770Z,12.33
2024-01-04T19:24:25.568Z,12.29
2024-01-04T19:26:52.373Z,12.24
2024-01-04T19:29:19.181Z,12.21
2024-01-04T19:31:46.853Z,12.17
2024-01-04T19:34:13.798Z,12.14
2024-01-04T19:36:43.766Z,12.10
2024-01-04T19:39:10.795Z,12.07
2024-01-04T19:41:37.517Z,12.04
2024-01-04T19:44:04.446Z,11.99
2024-01-04T19:46:31.187Z,11.97
2024-01-04T19:48:57.969Z,11.93
2024-01-04T19:51:24.793Z,11.91
2024-01-04T19:53:52.482Z,11.88
2024-01-04T19:56:19.350Z,11.87
2024-01-04T19:58:47.488Z,11.84
2024-01-04T20:01:14.348Z,11.85
2024-01-04T20:03:41.334Z,11.85
2024-01-04T20:06:08.423Z,11.84
2024-01-04T20:08:35.807Z,11.81
2024-01-04T20:11:02.777Z,11.83
2024-01-04T20:13:29.574Z,11.85
2024-01-04T20:15:56.300Z,11.86
2024-01-04T20:18:25.372Z,11.86
2024-01-04T20:20:54.069Z,11.82
2024-01-04T20:23:21.640Z,11.80
2024-01-04T20:25:48.430Z,11.76
2024-01-04T20:28:15.162Z,11.72
2024-01-04T20:30:41.944Z,11.70
2024-01-04T20:33:09.086Z,11.67
2024-01-04T20:35:35.908Z,11.63
2024-01-04T20:38:03.876Z,11.60
2024-01-04T20:40:30.855Z,11.59
2024-01-04T20:42:57.912Z,11.56
2024-01-04T20:45:24.722Z,11.53
2024-01-04T20:47:51.678Z,11.51
2024-01-04T20:50:18.569Z,11.50
2024-01-04T20:52:45.334Z,11.49
2024-01-04T20:55:12.033Z,11.48
2024-01-04T20:57:38.863Z,11.45
2024-01-04T21:00:07.815Z,11.43
2024-01-04T21:02:34.699Z,11.41
2024-01-04T21:05:02.110Z,11.38
2024-01-04T21:07:29.432Z,11.38
2024-01-04T21:09:56.197Z,11.37
2024-01-04T21:12:31.174Z,11.34
2024-01-04T21:14:57.908Z,11.33
2024-01-04T21:17:24.594Z,11.32
2024-01-04T21:19:51.777Z,11.31
2024-01-04T21:22:18.530Z,11.30
2024-01-04T21:24:45.189Z,11.30
2024-01-04T21:27:12.490Z,11.29
2024-01-04T21:29:39.250Z,11.28
2024-01-04T21:32:06.237Z,11.28
2024-01-04T21:34:33.089Z,11.27
2024-01-04T21:36:59.898Z,11.27
2024-01-04T21:39:27.112Z,11.27
2024-01-04T21:41:53.913Z,11.24
2024-01-04T21:44:20.677Z,11.22
2024-01-04T21:46:51.125Z,11.20
2024-01-04T21:49:20.590Z,11.15
2024-01-04T21:51:47.583Z,11.10
2024-01-04T21:54:14.312Z,11.09
2024-01-04T21:56:41.393Z,11.06
2024-01-04T21:59:08.123Z,11.04
2024-01-04T22:01:37.207Z,11.04
2024-01-04T22:04:05.691Z,11.04
2024-01-04T22:06:32.979Z,11.03
2024-01-04T22:09:00.116Z,11.00
2024-01-04T22:11:26.882Z,10.97
2024-01-04T22:13:56.240Z,10.96
2024-01-04T22:16:37.073Z,10.93
2024-01-04T22:19:04.586Z,10.94
2024-01-04T22:21:32.202Z,10.94
2024-01-04T22:23:59.532Z,10.94
2024-01-04T22:26:26.503Z,10.95
2024-01-04T22:28:53.468Z,10.94
2024-01-04T22:31:20.143Z,10.95
2024-01-04T22:33:46.969Z,10.94
2024-01-04T22:36:14.071Z,10.92
2024-01-04T22:38:40.917Z,10.91
2024-01-04T22:41:07.831Z,10.89
2024-01-04T22:43:34.472Z,10.88
2024-01-04T22:46:02.007Z,10.88
2024-01-04T22:48:29.099Z,10.86
2024-01-04T22:50:56.091Z,10.85
2024-01-04T22:53:22.953Z,10.87
2024-01-04T22:55:50.665Z,10.85
2024-01-04T22:58:17.355Z,10.83
2024-01-04T23:00:44.129Z,10.83
2024-01-04T23:03:10.987Z,10.83
2024-01-04T23:05:37.772Z,10.81
2024-01-04T23:08:05.459Z,10.80
2024-01-04T23:10:32.159Z,10.81
2024-01-04T23:12:58.806Z,10.79
2024-01-04T23:15:25.594Z,10.79
2024-01-04T23:17:52.450Z,10.80
2024-01-04T23:20:19.192Z,10.81
2024-01-04T23:22:46.110Z,10.82
2024-01-04T23:25:12.763Z,10.83
2024-01-04T23:27:39.575Z,10.84
2024-01-04T23:30:07.002Z,10.82
2024-01-04T23:32:33.988Z,10.82
2024-01-04T23:35:00.895Z,10.83
2024-01-04T23:37:27.636Z,10.83
2024-01-04T23:39:54.355Z,10.82
2024-01-04T23:42:21.061Z,10.82
2024-01-04T23:44:47.783Z,10.81
2024-01-04T23:47:14.556Z,10.80
2024-01-04T23:49:41.424Z,10.81
2024-01-04T23:52:08.216Z,10.81
2024-01-04T23:54:35.053Z,10.82
2024-01-04T23:57:01.766Z,10.80
2024-01-04T23:59:28.441Z,10.78
